Terminal Aerodrome Forecast
Issued by NWS Melbourne, FL

Home | Current Version | Previous Version | Text Only | Print | Product List | Glossary On
Versions: 1 2 3 4 5 6 7 8 9 10 11 12 13 14 15
000
FTUS42 KMLB 201400 AAA
TAFDAB
TAF AMD
KDAB 201428Z 2014/2112 33009KT P6SM VCSH SCT005 BKN050
     FM201800 29007KT P6SM VCSH SCT030 OVC040
      TEMPO 2018/2021 3SM SHRA BKN025
     FM210000 VRB03KT P6SM VCSH SCT025 BKN060=

USA.gov is the U.S. government's official web portal to all federal, state and local government web resources and services.